メインページ
METAR-TAF:

METAR-TAF

空港 :

ベオグラード, セルビア

ベオグラード・ニコラ・テスラ空港

緯度: 44-49N, 経度: 020-17E, 海抜: 96m

現時点の気象観測

当レポートは18分前の15:30(UTC)に作成
の風 10kt
気温 22°C
湿度 43%
気圧 1024 hPa
視程10km以上
1,500メートル以下は雲なし、積乱雲なし

METAR: LYBE 191530Z 36010KT CAVOK 22/09 Q1024 NOSIG

時間: 17:48 (15:48 UTC)

予報

当レポートは4時間48分前の11:00(UTC)に作成
予報は19日の 12時(UTC)から 20日の 12時(UTC)まで有効
の風 12kt
視程10km以上
1,500メートル以下は雲なし、積乱雲なし
19日の 18時(UTC)から 19日の 20時(UTC)まで徐々に
西/北西の風 6kt
20日の 07時(UTC)から 20日の 09時(UTC)まで徐々に
の風 14kt

TAF: LYBE 191100Z 1912/2012 35012KT CAVOK TX23/1913Z TN08/2004Z BECMG 1918/1920 29006KT BECMG 2007/2009 01014KT

4,000以上の空港の気象観測と天気予報(METAR報とTAF報)

利用可能な観測所は地図上に黄色い丸と赤い丸で示す。

丸の上にカーソルを重ねると観測所名を参照できる。

次にクリックすると気象観測と天気予報を参照できる。

マップの切り替え:黒色「×」印の緑ボタンをクリックして拡大、「-」印の緑ボタンをクリックして縮小、緑色の三角印をクリックして隣りの地図に切り替え


METAR-TAF: